createdAt,value
2024-04-25T00:01:33.305Z,99565.28
2024-04-25T00:04:36.746Z,99573.56
2024-04-25T00:07:40.178Z,99577.94
2024-04-25T00:10:43.690Z,99568.69
2024-04-25T00:13:47.400Z,99568.22
2024-04-25T00:16:50.585Z,99573.63
2024-04-25T00:19:55.129Z,99568.19
2024-04-25T00:22:58.625Z,99559.38
2024-04-25T00:26:02.097Z,99571.53
2024-04-25T00:29:05.637Z,99571.25
2024-04-25T00:32:09.579Z,99564.53
2024-04-25T00:35:13.544Z,99568.00
2024-04-25T00:38:17.930Z,99575.22
2024-04-25T00:41:24.246Z,99572.94
2024-04-25T00:44:30.218Z,99574.22
2024-04-25T00:47:36.854Z,99577.75
2024-04-25T00:50:40.575Z,99580.16
2024-04-25T00:53:44.078Z,99568.94
2024-04-25T00:56:49.974Z,99587.78
2024-04-25T00:59:58.507Z,99586.69
2024-04-25T01:03:05.939Z,99587.78
2024-04-25T01:06:09.421Z,99590.84
2024-04-25T01:09:14.050Z,99587.28
2024-04-25T01:12:19.118Z,99596.50
2024-04-25T01:15:28.093Z,99598.09
2024-04-25T01:18:34.066Z,99597.69
2024-04-25T01:21:37.064Z,99596.50
2024-04-25T01:24:40.599Z,99590.41
2024-04-25T01:27:44.723Z,99590.41
2024-04-25T01:30:49.914Z,99594.69
2024-04-25T01:33:55.390Z,99592.72
2024-04-25T01:37:00.928Z,99594.53
2024-04-25T01:40:05.892Z,99594.63
2024-04-25T01:43:10.049Z,99592.72
2024-04-25T01:46:13.768Z,99587.75
2024-04-25T01:49:16.814Z,99583.91
2024-04-25T01:52:26.637Z,99590.41
2024-04-25T01:55:31.495Z,99588.50
2024-04-25T01:58:34.483Z,99581.56
2024-04-25T02:01:39.651Z,99590.81
2024-04-25T02:04:45.212Z,99589.22
2024-04-25T02:07:49.165Z,99583.56
2024-04-25T02:10:53.624Z,99592.03
2024-04-25T02:13:57.140Z,99585.88
2024-04-25T02:17:00.107Z,99587.13
2024-04-25T02:20:23.666Z,99590.97
2024-04-25T02:23:47.959Z,99588.66
2024-04-25T02:26:50.874Z,99586.38
2024-04-25T02:29:55.661Z,99592.56
2024-04-25T02:32:59.264Z,99586.38
2024-04-25T02:36:02.834Z,99587.53
2024-04-25T02:39:10.506Z,99589.16
2024-04-25T02:42:15.238Z,99593.03
2024-04-25T02:45:18.818Z,99585.69
2024-04-25T02:48:22.367Z,99594.59
2024-04-25T02:51:25.922Z,99596.50
2024-04-25T02:54:30.621Z,99604.56
2024-04-25T02:57:34.586Z,99607.56
2024-04-25T03:00:39.408Z,99607.66
2024-04-25T03:03:52.403Z,99610.00
2024-04-25T03:06:57.327Z,99604.97
2024-04-25T03:10:01.225Z,99606.19
2024-04-25T03:13:11.739Z,99606.63
2024-04-25T03:16:19.499Z,99610.81
2024-04-25T03:19:22.948Z,99605.06
2024-04-25T03:22:26.878Z,99608.06
2024-04-25T03:25:30.489Z,99606.50
2024-04-25T03:28:35.122Z,99604.06
2024-04-25T03:31:38.012Z,99610.59
2024-04-25T03:34:44.105Z,99624.38
2024-04-25T03:37:46.936Z,99625.41
2024-04-25T03:40:50.124Z,99620.47
2024-04-25T03:43:55.759Z,99625.78
2024-04-25T03:47:02.984Z,99634.97
2024-04-25T03:50:10.494Z,99632.38
2024-04-25T03:53:15.069Z,99626.59
2024-04-25T03:56:21.002Z,99638.09
2024-04-25T03:59:28.684Z,99631.34
2024-04-25T04:02:34.366Z,99629.41
2024-04-25T04:05:37.998Z,99632.59
2024-04-25T04:08:48.969Z,99633.31
2024-04-25T04:11:54.344Z,99629.56
2024-04-25T04:14:57.930Z,99629.59
2024-04-25T04:18:05.633Z,99629.94
2024-04-25T04:21:10.585Z,99641.88
2024-04-25T04:24:18.218Z,99638.25
2024-04-25T04:27:22.922Z,99639.81
2024-04-25T04:30:26.657Z,99640.56
2024-04-25T04:33:39.867Z,99653.06
2024-04-25T04:36:44.672Z,99650.69
2024-04-25T04:39:48.307Z,99659.13
2024-04-25T04:42:54.946Z,99662.22
2024-04-25T04:45:59.298Z,99669.41
2024-04-25T04:49:03.938Z,99666.09
2024-04-25T04:52:07.408Z,99659.41
2024-04-25T04:55:17.650Z,99673.13
2024-04-25T04:58:25.350Z,99667.63
2024-04-25T05:01:30.271Z,99678.44
2024-04-25T05:04:39.706Z,99668.72
2024-04-25T05:07:47.190Z,99678.00
2024-04-25T05:10:53.759Z,99678.47
2024-04-25T05:14:01.449Z,99680.13
2024-04-25T05:17:06.630Z,99686.38
2024-04-25T05:20:10.608Z,99675.91
2024-04-25T05:23:20.550Z,99685.44
2024-04-25T05:26:25.670Z,99687.94
2024-04-25T05:29:33.790Z,99686.00
2024-04-25T05:32:40.085Z,99678.34
2024-04-25T05:35:54.337Z,99682.94
2024-04-25T05:39:02.602Z,99686.41
2024-04-25T05:42:12.824Z,99695.63
2024-04-25T05:45:21.987Z,99696.22
2024-04-25T05:52:02.941Z,99695.97
2024-04-25T05:55:08.845Z,99690.72
2024-04-25T05:58:44.692Z,99696.78
2024-04-25T06:01:55.604Z,99679.88
2024-04-25T06:05:00.397Z,99695.47
2024-04-25T06:08:15.020Z,99694.56
2024-04-25T06:11:29.407Z,99695.31
2024-04-25T06:14:35.034Z,99697.91
2024-04-25T06:17:43.684Z,99698.94
2024-04-25T06:20:47.698Z,99704.56
2024-04-25T06:24:01.045Z,99712.81
2024-04-25T06:27:07.365Z,99715.34
2024-04-25T06:33:38.484Z,99714.22
2024-04-25T06:36:42.897Z,99712.84
2024-04-25T06:39:52.342Z,99711.09
2024-04-25T06:42:56.131Z,99714.75
2024-04-25T06:47:14.588Z,99712.38
2024-04-25T06:50:50.051Z,99711.63
2024-04-25T06:59:45.679Z,99718.91
2024-04-25T07:03:20.257Z,99720.34
2024-04-25T07:06:42.964Z,99711.00
2024-04-25T07:09:54.160Z,99704.16
2024-04-25T07:13:01.787Z,99717.25
2024-04-25T07:16:05.766Z,99716.50
2024-04-25T07:19:19.035Z,99720.75
2024-04-25T07:22:26.556Z,99728.78
2024-04-25T07:25:30.714Z,99732.28
2024-04-25T07:28:44.474Z,99729.25
2024-04-25T07:31:49.137Z,99734.38
2024-04-25T07:34:53.005Z,99727.88
2024-04-25T07:37:57.432Z,99728.09
2024-04-25T07:41:09.287Z,99729.53
2024-04-25T07:44:25.764Z,99735.88
2024-04-25T07:47:30.372Z,99738.94
2024-04-25T07:50:41.614Z,99736.53
2024-04-25T07:53:48.610Z,99726.53
2024-04-25T07:56:52.700Z,99739.84
2024-04-25T07:59:57.979Z,99736.25
2024-04-25T08:03:01.595Z,99731.72
2024-04-25T08:07:15.371Z,99735.34
2024-04-25T08:20:41.670Z,99738.50
2024-04-25T08:27:49.026Z,99741.09
2024-04-25T08:30:53.633Z,99735.56
2024-04-25T08:34:11.832Z,99738.28
2024-04-25T08:37:21.289Z,99727.28
2024-04-25T08:40:36.220Z,99733.75
2024-04-25T08:43:52.898Z,99726.41
2024-04-25T08:46:57.676Z,99722.53
2024-04-25T08:50:08.154Z,99723.34
2024-04-25T08:56:49.276Z,99728.03
2024-04-25T08:59:55.258Z,99729.88
2024-04-25T09:03:01.354Z,99732.03
2024-04-25T09:06:04.839Z,99726.03
2024-04-25T09:09:13.568Z,99726.34
2024-04-25T09:12:18.388Z,99726.69
2024-04-25T09:15:27.241Z,99719.97
2024-04-25T09:18:35.965Z,99726.59
2024-04-25T09:21:40.180Z,99721.34
2024-04-25T09:24:50.121Z,99725.75
2024-04-25T09:27:53.394Z,99722.13
2024-04-25T09:31:01.372Z,99719.19
2024-04-25T09:34:15.461Z,99706.47
2024-04-25T09:37:25.546Z,99710.59
2024-04-25T09:40:36.701Z,99709.00
2024-04-25T09:43:41.555Z,99715.06
2024-04-25T09:46:53.563Z,99709.88
2024-04-25T09:50:11.122Z,99712.31
2024-04-25T09:53:24.721Z,99712.72
2024-04-25T09:56:30.853Z,99709.34
2024-04-25T09:59:51.083Z,99703.22
2024-04-25T10:02:58.335Z,99703.47
2024-04-25T10:06:10.008Z,99703.72
2024-04-25T10:09:13.774Z,99700.16
2024-04-25T10:12:50.819Z,99702.19
2024-04-25T10:16:02.185Z,99700.34
2024-04-25T10:19:10.999Z,99698.72
2024-04-25T10:22:26.737Z,99692.09
2024-04-25T10:25:31.553Z,99689.69
2024-04-25T10:28:35.662Z,99698.25
2024-04-25T10:31:43.605Z,99696.84
2024-04-25T10:34:50.557Z,99688.16
2024-04-25T10:37:55.587Z,99695.09
2024-04-25T10:41:07.514Z,99686.59
2024-04-25T10:44:17.016Z,99684.13
2024-04-25T10:47:20.823Z,99689.19
2024-04-25T10:50:29.019Z,99689.59
2024-04-25T10:53:32.675Z,99689.09
2024-04-25T10:56:40.825Z,99694.59
2024-04-25T10:59:46.174Z,99698.44
2024-04-25T11:02:53.872Z,99701.44
2024-04-25T11:06:01.756Z,99696.91
2024-04-25T11:09:18.336Z,99692.81
2024-04-25T11:12:25.369Z,99685.66
2024-04-25T11:15:30.563Z,99692.38
2024-04-25T11:18:35.606Z,99688.25
2024-04-25T11:21:46.817Z,99693.09
2024-04-25T11:25:01.546Z,99686.16
2024-04-25T11:28:05.740Z,99688.34
2024-04-25T11:31:09.631Z,99694.25
2024-04-25T11:34:23.713Z,99687.44
2024-04-25T11:37:40.426Z,99689.56
2024-04-25T11:40:45.493Z,99687.59
2024-04-25T11:43:50.287Z,99691.38
2024-04-25T11:46:54.659Z,99691.22
2024-04-25T11:49:57.656Z,99679.31
2024-04-25T11:53:09.550Z,99671.63
2024-04-25T11:56:14.159Z,99672.13
2024-04-25T11:59:17.190Z,99678.75
2024-04-25T12:02:24.506Z,99678.81
2024-04-25T12:05:27.507Z,99673.63
2024-04-25T12:08:31.260Z,99685.91
2024-04-25T12:11:37.492Z,99681.25
2024-04-25T12:14:44.763Z,99689.38
2024-04-25T12:17:50.476Z,99687.06
2024-04-25T12:20:53.564Z,99685.50
2024-04-25T12:24:00.135Z,99689.31
2024-04-25T12:27:03.662Z,99683.47
2024-04-25T12:30:10.201Z,99690.00
2024-04-25T12:33:14.350Z,99685.53
2024-04-25T12:36:17.547Z,99680.72
2024-04-25T12:39:23.457Z,99686.00
2024-04-25T12:42:33.041Z,99678.91
2024-04-25T12:45:37.848Z,99672.31
2024-04-25T12:48:41.203Z,99667.53
2024-04-25T12:51:45.280Z,99663.81
2024-04-25T12:54:51.191Z,99660.75
2024-04-25T12:58:04.482Z,99667.38
2024-04-25T13:01:09.520Z,99658.44
2024-04-25T13:04:19.861Z,99655.66
2024-04-25T13:11:04.053Z,99657.41
2024-04-25T13:14:10.795Z,99662.72
2024-04-25T13:17:15.932Z,99660.59
2024-04-25T13:20:21.362Z,99653.28
2024-04-25T13:23:24.486Z,99651.63
2024-04-25T13:26:33.079Z,99651.72
2024-04-25T13:29:38.452Z,99655.84
2024-04-25T13:32:50.566Z,99646.59
2024-04-25T13:35:59.413Z,99651.44
2024-04-25T13:39:02.978Z,99653.72
2024-04-25T13:42:10.227Z,99651.13
2024-04-25T13:45:16.037Z,99652.19
2024-04-25T13:48:20.241Z,99661.31
2024-04-25T13:51:24.007Z,99659.31
2024-04-25T13:54:31.800Z,99660.84
2024-04-25T13:57:40.319Z,99665.69
2024-04-25T14:00:44.410Z,99666.25
2024-04-25T14:03:52.417Z,99658.09
2024-04-25T14:06:56.028Z,99657.78
2024-04-25T14:10:02.928Z,99662.34
2024-04-25T14:13:09.423Z,99663.44
2024-04-25T14:16:17.036Z,99661.31
2024-04-25T14:19:20.741Z,99654.75
2024-04-25T14:22:29.589Z,99655.75
2024-04-25T14:25:54.373Z,99656.19
2024-04-25T14:29:03.772Z,99663.00
2024-04-25T14:32:10.892Z,99657.50
2024-04-25T14:35:18.506Z,99662.34
2024-04-25T14:38:22.355Z,99663.69
2024-04-25T14:41:25.885Z,99662.78
2024-04-25T14:44:33.206Z,99670.50
2024-04-25T14:47:37.914Z,99668.28
2024-04-25T14:50:41.052Z,99668.34
2024-04-25T14:53:47.606Z,99668.91
2024-04-25T14:56:51.245Z,99666.00
2024-04-25T14:59:57.055Z,99666.75
2024-04-25T15:06:32.740Z,99660.59
2024-04-25T15:09:35.710Z,99666.94
2024-04-25T15:12:42.766Z,99663.44
2024-04-25T15:15:50.111Z,99668.13
2024-04-25T15:18:55.620Z,99671.75
2024-04-25T15:22:05.076Z,99666.41
2024-04-25T15:25:09.064Z,99670.09
2024-04-25T15:28:21.231Z,99668.44
2024-04-25T15:31:27.182Z,99671.31
2024-04-25T15:34:31.716Z,99667.03
2024-04-25T15:37:35.225Z,99666.31
2024-04-25T15:40:51.437Z,99666.16
2024-04-25T15:44:00.902Z,99667.81
2024-04-25T15:47:16.441Z,99670.22
2024-04-25T15:50:24.393Z,99671.31
2024-04-25T15:53:27.454Z,99676.25
2024-04-25T15:56:30.457Z,99670.91
2024-04-25T15:59:36.078Z,99671.53
2024-04-25T16:02:39.295Z,99673.97
2024-04-25T16:05:43.931Z,99660.34
2024-04-25T16:08:49.603Z,99675.81
2024-04-25T16:11:55.756Z,99663.25
2024-04-25T16:14:59.523Z,99667.75
2024-04-25T16:18:05.394Z,99665.41
2024-04-25T16:21:13.701Z,99662.47
2024-04-25T16:24:24.765Z,99668.25
2024-04-25T16:27:28.808Z,99663.06
2024-04-25T16:31:08.088Z,99663.94
2024-04-25T16:34:13.326Z,99667.41
2024-04-25T16:37:21.646Z,99666.72
2024-04-25T16:40:29.871Z,99671.63
2024-04-25T16:43:38.218Z,99670.47
2024-04-25T16:46:44.975Z,99674.31
2024-04-25T16:49:50.032Z,99678.34
2024-04-25T16:52:53.165Z,99698.84
2024-04-25T16:55:56.311Z,99691.44
2024-04-25T16:59:02.648Z,99698.19
2024-04-25T17:02:08.824Z,99690.91
2024-04-25T17:05:21.589Z,99699.94
2024-04-25T17:08:31.090Z,99700.91
2024-04-25T17:11:34.216Z,99692.84
2024-04-25T17:14:38.437Z,99707.13
2024-04-25T17:17:49.551Z,99712.91
2024-04-25T17:20:57.331Z,99713.50
2024-04-25T17:24:02.030Z,99717.97
2024-04-25T17:27:07.598Z,99721.06
2024-04-25T17:30:17.424Z,99725.78
2024-04-25T17:33:23.344Z,99721.00
2024-04-25T17:36:31.603Z,99722.31
2024-04-25T17:39:34.674Z,99720.66
2024-04-25T17:42:37.653Z,99732.06
2024-04-25T17:45:43.311Z,99732.94
2024-04-25T17:48:47.084Z,99732.69
2024-04-25T17:51:51.296Z,99736.38
2024-04-25T17:54:59.374Z,99747.53
2024-04-25T17:58:05.479Z,99745.34
2024-04-25T18:01:09.535Z,99749.78
2024-04-25T18:04:14.462Z,99749.94
2024-04-25T18:07:21.650Z,99753.38
2024-04-25T18:10:30.308Z,99758.22
2024-04-25T18:13:33.391Z,99752.03
2024-04-25T18:16:37.227Z,99761.97
2024-04-25T18:19:49.326Z,99768.34
2024-04-25T18:22:54.964Z,99775.72
2024-04-25T18:26:05.401Z,99781.72
2024-04-25T18:29:08.380Z,99783.94
2024-04-25T18:32:11.476Z,99787.53
2024-04-25T18:35:14.464Z,99782.19
2024-04-25T18:38:18.768Z,99783.63
2024-04-25T18:41:28.304Z,99791.25
2024-04-25T18:44:37.244Z,99783.00
2024-04-25T18:47:46.651Z,99793.50
2024-04-25T18:50:51.491Z,99797.56
2024-04-25T18:53:54.663Z,99802.56
2024-04-25T18:56:58.961Z,99807.91
2024-04-25T19:00:05.237Z,99803.75
2024-04-25T19:03:12.459Z,99814.47
2024-04-25T19:06:27.282Z,99811.50
2024-04-25T19:09:33.454Z,99818.78
2024-04-25T19:12:42.099Z,99824.75
2024-04-25T19:15:45.169Z,99830.06
2024-04-25T19:18:48.912Z,99827.50
2024-04-25T19:21:54.158Z,99832.66
2024-04-25T19:24:58.065Z,99833.09
2024-04-25T19:28:04.921Z,99839.38
2024-04-25T19:31:35.194Z,99844.06
2024-04-25T19:34:41.524Z,99846.56
2024-04-25T19:37:51.926Z,99845.06
2024-04-25T19:40:56.623Z,99838.66
2024-04-25T19:44:11.793Z,99843.66
2024-04-25T19:47:20.895Z,99848.66
2024-04-25T19:50:30.934Z,99845.72
2024-04-25T19:53:35.960Z,99854.31
2024-04-25T19:56:43.228Z,99847.06
2024-04-25T19:59:49.088Z,99857.56
2024-04-25T20:02:59.538Z,99850.09
2024-04-25T20:06:17.036Z,99855.75
2024-04-25T20:09:20.916Z,99855.84
2024-04-25T20:12:26.508Z,99850.59
2024-04-25T20:15:29.868Z,99856.19
2024-04-25T20:18:58.215Z,99861.31
2024-04-25T20:22:05.129Z,99867.16
2024-04-25T20:25:08.649Z,99861.25
2024-04-25T20:28:12.106Z,99863.16
2024-04-25T20:31:19.341Z,99864.19
2024-04-25T20:34:23.954Z,99865.25
2024-04-25T20:37:27.586Z,99861.16
2024-04-25T20:40:31.566Z,99863.50
2024-04-25T20:43:36.740Z,99868.56
2024-04-25T20:46:45.130Z,99866.69
2024-04-25T20:49:54.357Z,99863.78
2024-04-25T20:52:57.762Z,99872.56
2024-04-25T20:56:07.052Z,99887.03
2024-04-25T20:59:09.972Z,99880.03
2024-04-25T21:02:13.848Z,99889.72
2024-04-25T21:05:19.478Z,99874.53
2024-04-25T21:08:27.836Z,99876.09
2024-04-25T21:11:31.610Z,99883.91
2024-04-25T21:14:39.304Z,99886.13
2024-04-25T21:17:45.217Z,99882.00
2024-04-25T21:20:50.256Z,99892.03
2024-04-25T21:24:07.088Z,99892.38
2024-04-25T21:27:10.623Z,99898.69
2024-04-25T21:30:18.142Z,99891.38
2024-04-25T21:33:23.358Z,99898.44
2024-04-25T21:36:36.444Z,99898.78
2024-04-25T21:39:42.965Z,99900.38
2024-04-25T21:42:46.598Z,99906.66
2024-04-25T21:45:50.159Z,99897.06
2024-04-25T21:48:55.157Z,99904.31
2024-04-25T21:52:23.749Z,99906.81
2024-04-25T21:55:26.794Z,99893.03
2024-04-25T21:58:30.306Z,99893.38
2024-04-25T22:01:33.861Z,99904.16
2024-04-25T22:04:37.294Z,99905.44
2024-04-25T22:07:41.047Z,99898.97
2024-04-25T22:10:43.965Z,99908.16
2024-04-25T22:13:46.844Z,99903.97
2024-04-25T22:16:50.541Z,99903.09
2024-04-25T22:19:59.438Z,99905.94
2024-04-25T22:23:03.526Z,99905.19
2024-04-25T22:26:07.956Z,99904.88
2024-04-25T22:29:14.187Z,99904.97
2024-04-25T22:32:17.162Z,99895.28
2024-04-25T22:35:23.353Z,99894.47
2024-04-25T22:38:26.861Z,99892.19
2024-04-25T22:41:31.550Z,99891.31
2024-04-25T22:44:36.359Z,99895.00
2024-04-25T22:47:40.708Z,99890.25
2024-04-25T22:50:44.297Z,99895.72
2024-04-25T22:53:47.434Z,99895.13
2024-04-25T22:56:51.389Z,99893.47
2024-04-25T22:59:56.340Z,99892.97
2024-04-25T23:02:59.826Z,99889.19
2024-04-25T23:06:03.001Z,99902.41
2024-04-25T23:09:07.014Z,99898.59
2024-04-25T23:12:10.216Z,99893.34
2024-04-25T23:15:13.916Z,99898.41
2024-04-25T23:18:18.641Z,99893.06
2024-04-25T23:21:22.147Z,99900.81
2024-04-25T23:24:28.247Z,99898.25
2024-04-25T23:27:37.053Z,99901.72
2024-04-25T23:30:40.498Z,99902.47
2024-04-25T23:33:43.786Z,99895.47
2024-04-25T23:40:22.912Z,99899.06
2024-04-25T23:43:30.024Z,99904.88
2024-04-25T23:46:32.889Z,99903.25
2024-04-25T23:49:36.342Z,99897.91
2024-04-25T23:52:40.714Z,99896.44
2024-04-25T23:55:45.001Z,99900.25
2024-04-25T23:58:47.964Z,99895.63
